Wind EuroAirport

Messzeit Windrichtung Windgeschwindigkeit [Knoten] Rückenwind Nordpiste [Knoten] METAR
2020-09-21 10:00 SO 120°
(90°–150°)
5 - LFSB 210800Z 12005KT 090V150 9999 FEW030 SCT270 19/12 Q1016 NOSIG
2020-09-21 09:30 S 160° 6 - LFSB 210730Z 16006KT 9999 FEW025 18/12 Q1016 NOSIG
2020-09-21 09:00 S 160°
(120°–180°)
5 - LFSB 210700Z 16005KT 120V180 9999 FEW025 16/13 Q1016 NOSIG
2020-09-21 08:30 S 180° 4 - LFSB 210630Z 18004KT 9999 FEW025 SCT130 15/12 Q1016 NOSIG
2020-09-21 08:00 SO 140° 2 - LFSB 210600Z 14002KT 9999 FEW025 SCT130 13/11 Q1016 NOSIG
2020-09-21 07:30 S 190° 2 - LFSB 210530Z 19002KT 9999 FEW025 SCT130 12/10 Q1016 NOSIG
2020-09-21 07:00 S 200° 2 - LFSB 210500Z 20002KT 9999 FEW025 SCT130 11/10 Q1016 NOSIG
2020-09-21 06:30 - 2 - LFSB 210430Z AUTO VRB02KT 9999 FEW040 11/09 Q1016
2020-09-21 06:00 - 3 - LFSB 210400Z AUTO VRB03KT 9999 FEW038 11/08 Q1015
2020-09-21 05:30 S 200° 2 - LFSB 210330Z AUTO 20002KT 9999 FEW030 11/09 Q1015
2020-09-21 05:00 SW 240° 2 - LFSB 210300Z AUTO 24002KT 9999 FEW033 11/09 Q1015 NOSIG
2020-09-21 04:30 SO 120° 2 - LFSB 210230Z AUTO 12002KT 9999 FEW032 12/10 Q1015 NOSIG
2020-09-21 04:00 SW 220°
(190°–250°)
3 - LFSB 210200Z AUTO 22003KT 190V250 CAVOK 11/09 Q1016 NOSIG
2020-09-21 03:30 S 200° 3 - LFSB 210130Z AUTO 20003KT CAVOK 12/10 Q1015 NOSIG
2020-09-21 03:00 - 2 - LFSB 210100Z AUTO VRB02KT CAVOK 12/10 Q1016 NOSIG
2020-09-21 02:30 - 3 - LFSB 210030Z AUTO VRB03KT CAVOK 11/09 Q1016 NOSIG
2020-09-21 02:00 - 2 - LFSB 210000Z AUTO VRB02KT CAVOK 12/09 Q1016 NOSIG
2020-09-21 01:30 - 2 - LFSB 202330Z AUTO VRB02KT CAVOK 13/10 Q1015 NOSIG
2020-09-21 01:00 SW 230° 4 - LFSB 202300Z AUTO 23004KT CAVOK 13/10 Q1015 NOSIG
2020-09-21 00:30 SW 240° 4 - LFSB 202230Z AUTO 24004KT CAVOK 15/10 Q1015 NOSIG
2020-09-21 00:00 W 250° 3 - LFSB 202200Z AUTO 25003KT CAVOK 15/11 Q1015 NOSIG
2020-09-20 23:30 W 270°
(230°–300°)
4 0–3 LFSB 202130Z AUTO 27004KT 230V300 CAVOK 16/11 Q1015 NOSIG
2020-09-20 23:00 NW 310° 5 4 LFSB 202100Z AUTO 31005KT CAVOK 17/11 Q1015 NOSIG
2020-09-20 22:30 W 250° 4 - LFSB 202030Z AUTO 25004KT CAVOK 18/11 Q1015 NOSIG
2020-09-20 22:00 NW 320° 6 6 LFSB 202000Z AUTO 32006KT CAVOK 19/11 Q1015 NOSIG
2020-09-20 21:30 NW 320° 4 4 LFSB 201930Z AUTO 32004KT CAVOK 19/11 Q1015 NOSIG
2020-09-20 21:00 NW 310° 8 7 LFSB 201900Z AUTO 31008KT CAVOK 20/11 Q1014 NOSIG
2020-09-20 20:30 NW 330° 5 5 LFSB 201830Z AUTO 33005KT CAVOK 20/10 Q1014 NOSIG
2020-09-20 20:00 N 340° 6 6 LFSB 201800Z AUTO 34006KT CAVOK 20/10 Q1014 NOSIG
2020-09-20 19:30 N 350° 7 7 LFSB 201730Z AUTO 35007KT CAVOK 22/12 Q1013 NOSIG
2020-09-20 19:00 var 360° 8 8 LFSB 201700Z 36008KT 9999 FEW050TCU SCT260 24/12 Q1013 NOSIG
2020-09-20 18:30 var 360° 7 7 LFSB 201630Z 36007KT 9999 FEW050TCU SCT260 25/09 Q1013 NOSIG
2020-09-20 18:00 N 10° 7 6 LFSB 201600Z 01007KT 9999 FEW050TCU SCT260 26/12 Q1013 NOSIG
2020-09-20 17:30 var 360° 6 6 LFSB 201530Z 36006KT 9999 FEW050TCU SCT260 26/13 Q1013 NOSIG
2020-09-20 17:00 NW 310°
(260°–10°)
6 1–6 LFSB 201500Z 31006KT 260V010 9999 FEW050TCU SCT260 27/13 Q1013 NOSIG
2020-09-20 16:30 NW 310°
(280°–340°)
5 3–5 LFSB 201430Z 31005KT 280V340 9999 FEW050CB 27/12 Q1013 NOSIG
2020-09-20 16:00 NW 300°
(260°–350°)
5 1–5 LFSB 201400Z 30005KT 260V350 9999 FEW050CB SCT260 27/13 Q1013 NOSIG
2020-09-20 15:30 NW 300°
(240°–340°)
6 0–6 LFSB 201330Z 30006KT 240V340 9999 FEW050CB 26/13 Q1013 NOSIG
2020-09-20 15:00 - 3 - LFSB 201300Z VRB03KT 9999 FEW050CB 26/13 Q1014 NOSIG
2020-09-20 14:30 - 5 - LFSB 201230Z VRB05KT 9999 FEW046 25/13 Q1014 NOSIG
2020-09-20 14:00 var 360°
(320°–40°)
4 2–4 LFSB 201200Z 36004KT 320V040 9999 FEW043 25/13 Q1014 NOSIG
2020-09-20 13:30 - 3 - LFSB 201130Z VRB03KT 9999 FEW043 24/15 Q1015 NOSIG
2020-09-20 13:00 - 2 - LFSB 201100Z VRB02KT 9999 FEW040 23/14 Q1015 NOSIG
2020-09-20 12:30 O 70°
(340°–140°)
3 0–3 LFSB 201030Z 07003KT 340V140 7000 NSC 22/14 Q1015 NOSIG
2020-09-20 12:00 - 3 - LFSB 201000Z VRB03KT 7000 NSC 22/14 Q1015 NOSIG
2020-09-20 11:30 - 3 - LFSB 200930Z VRB03KT 7000 FEW013 20/14 Q1015 NOSIG
2020-09-20 11:00 - 2 - LFSB 200900Z VRB02KT 6000 FEW007 20/14 Q1015 NOSIG